Thunder radar more information blitzortung!


Radar de pluja more information rain snow radar


Visita la nostra xarxa de llocs de meteo:

Template documentation
and downloads

And another site



No particular awareness of the weather is required.    There are no Weather-warnings

Pagina Historial Weather Underground text

Diari Resum Juny 5, 2017 Unitats:  Imperial    Mètric   Tant
« Previous Dia
SegĂźent Dia »
Diari Setmana Mensual Anual Personalitzada
  Maxima: Minima: Media:
Temperatura: 78.3 °F 58.5 °F 68.2 °F
Punt de rosada: 62.2 °F 48.7 °F 56.1 °F
Humitat: 94 % 46 % 68 %
Wind Speed: 10.7 mph 0 mph 4.3 mph
RĂ fegues de vent: 10.7 mph - -
Vent:- - SW
Pression baro: 30 in 29.8 in -
Precipitacions: 0.21 in    
Historical Graphs
 
 
Dades de taula per Juny 5, 2017
Temps Temperatura Punt de rosada Pression baro Vent Wind Speed RĂ fegues de vent Humitat Rainfall Rate (Hourly)
00:00 59 °F 55.4 °F 29.9 in SW 1 mph 2 mph 88 % 0 in
00:01 64.4 °F 58.1 °F 29.9 in NNW 2.3 mph   80 % 0 in
00:06 64.2 °F 57.9 °F 29.9 in NNE 2.3 mph 2.3 mph 80 % 0 in
00:10 58.8 °F 55.6 °F 29.9 in Calm   2 mph 89 % 0.04 in
00:20 58.8 °F 55.6 °F 29.9 in SW 2 mph 2 mph 89 % 0.04 in
00:30 58.8 °F 55.6 °F 29.9 in SW 1 mph 2 mph 89 % 0 in
00:40 58.6 °F 55.4 °F 29.9 in SW 1 mph 3 mph 89 % 0 in
00:50 58.6 °F 55.4 °F 29.9 in SW 2 mph 3 mph 89 % 0 in
01:00 58.6 °F 55.4 °F 29.9 in SW 2 mph 2 mph 89 % 0 in
01:10 58.6 °F 55.9 °F 29.9 in Calm   2 mph 91 % 0 in
01:20 58.6 °F 55.8 °F 29.9 in SW 1 mph 2 mph 90 % 0 in
01:30 58.6 °F 55.9 °F 29.9 in SW 1 mph 2 mph 91 % 0 in
01:40 58.6 °F 55.9 °F 29.9 in Calm     91 % 0 in
01:50 58.5 °F 55.6 °F 29.9 in SW 2 mph 4 mph 90 % 0 in
02:00 58.6 °F 55.8 °F 29.9 in SW 2 mph 3 mph 90 % 0 in
02:10 58.8 °F 56.1 °F 29.9 in SW 1 mph 3 mph 91 % 0 in
02:20 58.8 °F 56.5 °F 29.9 in SW 1 mph 2 mph 92 % 0 in
02:30 58.8 °F 56.5 °F 29.9 in SW 1 mph 2 mph 92 % 0 in
02:40 58.8 °F 56.5 °F 29.9 in Calm   2 mph 92 % 0 in
02:50 58.8 °F 56.8 °F 29.9 in Calm     93 % 0 in
03:00 58.8 °F 56.8 °F 29.9 in Calm   1 mph 93 % 0 in
03:10 59 °F 57 °F 30 in Calm   1 mph 93 % 0 in
03:20 59 °F 57 °F 29.9 in Calm   2 mph 93 % 0 in
03:30 59.2 °F 57.2 °F 29.9 in Calm   1 mph 93 % 0 in
03:40 59.2 °F 57.2 °F 29.9 in SW 1 mph 2 mph 93 % 0 in
03:50 59.2 °F 57.2 °F 29.9 in SW 1 mph 2 mph 93 % 0 in
04:00 59.2 °F 57.2 °F 29.9 in WSW 1 mph 3 mph 93 % 0.04 in
04:10 59.2 °F 57.2 °F 29.9 in WSW 1 mph 2 mph 93 % 0.04 in
04:20 59.5 °F 57.6 °F 29.9 in SW 1 mph 2 mph 93 % 0 in
04:30 59.5 °F 57.6 °F 29.9 in WSW 1 mph 3 mph 93 % 0 in
04:35 59.7 °F 57.7 °F 29.9 in Calm     93 % 0 in
09:36 59.7 °F 57.7 °F 30 in Calm   1.2 mph 93 % 0.04 in
09:41 59.9 °F 58.3 °F 30 in Calm     94 % 0.04 in
09:46 59.9 °F 58.3 °F 30 in SSW 1.2 mph   94 % 0.04 in
09:51 60.1 °F 58.3 °F 30 in Calm     94 % 0.04 in
09:56 60.1 °F 58.3 °F 30 in Calm     94 % 0.04 in
10:01 60.3 °F 58.5 °F 30 in SW 1.2 mph   94 % 0.04 in
10:06 60.3 °F 58.5 °F 30 in SW 2.3 mph 2.3 mph 94 % 0.04 in
10:11 60.3 °F 58.5 °F 30 in SW 3.5 mph 3.5 mph 94 % 0.04 in
10:16 60.4 °F 58.6 °F 30 in SW 4.6 mph 4.6 mph 94 % 0 in
10:21 60.3 °F 58.5 °F 30 in SW 2.3 mph 2.3 mph 94 % 0 in
10:26 60.4 °F 58.6 °F 30 in SW 2.3 mph 2.3 mph 94 % 0 in
10:31 60.4 °F 58.6 °F 30 in SW 2.3 mph 2.3 mph 94 % 0 in
10:36 60.6 °F 58.8 °F 30 in SW 2.3 mph 2.3 mph 94 % 0 in
10:41 60.8 °F 59.2 °F 30 in SSW 1.2 mph   94 % 0 in
10:46 60.8 °F 59.2 °F 30 in SW 2.3 mph 2.3 mph 94 % 0 in
10:51 61.2 °F 59.4 °F 30 in WSW 2.3 mph 2.3 mph 94 % 0 in
10:56 61.3 °F 59.5 °F 30 in West 1.2 mph   94 % 0 in
11:01 61.3 °F 59.5 °F 30 in WSW 2.3 mph 2.3 mph 94 % 0 in
11:06 61.3 °F 59.4 °F 30 in WSW 2.3 mph 2.3 mph 93 % 0 in
11:11 61.5 °F 59.5 °F 30 in WSW 1.2 mph   93 % 0 in
11:16 62.1 °F 60.1 °F 30 in SW 2.9 mph   93 % 0 in
11:21 62.2 °F 60.3 °F 30 in West 2.3 mph 2.3 mph 93 % 0 in
11:26 62.4 °F 60.1 °F 30 in SW 1.4 mph   92 % 0 in
11:31 62.6 °F 59.9 °F 30 in SW 1.2 mph   91 % 0 in
11:36 63 °F 60.3 °F 30 in Calm     91 % 0 in
11:37 63 °F 60.3 °F 30 in Calm     91 % 0 in
11:42 63.3 °F 60.6 °F 30 in SW 1.2 mph   91 % 0 in
11:47 63.3 °F 60.3 °F 30 in WNW 2.3 mph 2.3 mph 90 % 0 in
11:52 63.3 °F 60.3 °F 30 in NW 3.5 mph 3.5 mph 90 % 0 in
11:57 63.3 °F 60.1 °F 30 in South 2.3 mph 2.3 mph 89 % 0 in
12:02 63.3 °F 59.7 °F 30 in NNW 1.2 mph   88 % 0 in
12:07 63.3 °F 59.4 °F 30 in NW 1.2 mph   87 % 0 in
12:12 63.3 °F 59.2 °F 30 in WSW 1.2 mph 1.2 mph 86 % 0 in
12:17 63.7 °F 59.7 °F 30 in WSW 1.2 mph 1.2 mph 87 % 0 in
12:22 64 °F 60.1 °F 30 in WSW 2.3 mph 2.3 mph 87 % 0 in
12:27 64 °F 59.7 °F 30 in SW 2.3 mph 2.3 mph 86 % 0 in
12:32 64 °F 59.7 °F 30 in WNW 2.3 mph 2.3 mph 86 % 0 in
12:37 64.2 °F 59.5 °F 30 in WSW 2.3 mph 2.3 mph 85 % 0 in
12:42 64.4 °F 59.5 °F 30 in SSE 3.5 mph 3.5 mph 84 % 0 in
12:47 64.9 °F 60.1 °F 30 in West 2.9 mph 2.9 mph 84 % 0 in
12:52 65.7 °F 60.4 °F 30 in SW 2.3 mph 2.3 mph 83 % 0 in
12:53 65.8 °F 60.4 °F 30 in WSW 4.6 mph 4.6 mph 83 % 0 in
12:58 66.7 °F 60.6 °F 30 in West 4.6 mph 4.6 mph 81 % 0 in
13:03 67.8 °F 61.3 °F 30 in SSW 3.5 mph 3.5 mph 80 % 0 in
13:08 68.9 °F 62.1 °F 30 in WSW 5.8 mph 5.8 mph 79 % 0 in
13:13 69.4 °F 62.2 °F 30 in West 3.5 mph 3.5 mph 78 % 0 in
13:18 68.7 °F 61.2 °F 30 in South 4.6 mph 4.6 mph 77 % 0 in
13:23 68.9 °F 61 °F 30 in West 5.8 mph 5.8 mph 76 % 0 in
13:28 69.3 °F 61 °F 30 in WSW 4.6 mph 4.6 mph 75 % 0 in
13:33 70 °F 61 °F 29.9 in WNW 8.1 mph 8.1 mph 73 % 0 in
13:38 70.3 °F 61 °F 29.9 in SW 6.9 mph 6.9 mph 72 % 0 in
13:43 70.9 °F 61 °F 29.9 in NNW 7.1 mph 7.1 mph 71 % 0 in
13:48 71.4 °F 61.2 °F 30 in NW 4.6 mph 4.6 mph 70 % 0 in
13:53 71.8 °F 60.6 °F 30 in SW 4.3 mph 4.3 mph 68 % 0 in
13:58 72.1 °F 61 °F 30 in WSW 5.8 mph 5.8 mph 68 % 0 in
14:03 71.8 °F 60.3 °F 30 in West 4.6 mph 4.6 mph 67 % 0 in
14:13 72.5 °F 59.5 °F 30 in WSW 9.2 mph 9.2 mph 64 % 0 in
14:18 73 °F 60.6 °F 29.9 in South 5.4 mph 5.4 mph 65 % 0 in
14:23 73.8 °F 60.4 °F 29.9 in WSW 5.8 mph 5.8 mph 63 % 0 in
14:28 74.7 °F 61.2 °F 29.9 in SW 2.3 mph 2.3 mph 63 % 0 in
14:33 75.2 °F 60.8 °F 29.9 in SW 5.8 mph 5.8 mph 61 % 0 in
14:38 74.5 °F 60.1 °F 29.9 in SW 3.5 mph 3.5 mph 61 % 0 in
14:43 75.2 °F 60.4 °F 29.9 in South 3.5 mph 3.5 mph 60 % 0 in
14:48 75.2 °F 58.8 °F 29.9 in WSW 5.8 mph 5.8 mph 57 % 0 in
14:53 76.5 °F 61.5 °F 29.9 in SSE 3.6 mph 3.6 mph 60 % 0 in
14:58 76.6 °F 60.8 °F 29.9 in SW 5.8 mph 5.8 mph 58 % 0 in
15:03 76.5 °F 60.6 °F 29.9 in South 5.8 mph 5.8 mph 58 % 0 in
15:08 77.5 °F 61.2 °F 29.9 in SW 3.5 mph 3.5 mph 57 % 0 in
15:13 77.9 °F 59.9 °F 29.9 in SSW 4.9 mph 4.9 mph 54 % 0 in
15:18 77.7 °F 60.3 °F 29.9 in West 2.3 mph 2.3 mph 55 % 0 in
15:23 77 °F 59.5 °F 29.9 in SSW 6.2 mph 6.2 mph 55 % 0 in
15:28 76.5 °F 59.5 °F 29.9 in South 3.5 mph 3.5 mph 56 % 0 in
15:33 77.2 °F 59.2 °F 29.9 in SSW 6.2 mph 6.2 mph 54 % 0 in
15:38 76.8 °F 59.4 °F 29.9 in SW 5.8 mph 5.8 mph 55 % 0 in
15:43 75.9 °F 58.6 °F 29.9 in SW 5.8 mph 5.8 mph 55 % 0 in
15:48 75.7 °F 57.9 °F 29.9 in South 8.1 mph 8.1 mph 54 % 0 in
15:53 76.1 °F 58.8 °F 29.9 in South 5.8 mph 5.8 mph 55 % 0 in
15:58 77.4 °F 58.8 °F 29.9 in SSW 3.5 mph 3.5 mph 53 % 0 in
16:03 77.7 °F 59.2 °F 29.9 in SW 6.9 mph 6.9 mph 53 % 0 in
16:08 76.1 °F 57.7 °F 29.9 in SW 2.3 mph 2.3 mph 53 % 0 in
16:13 76.6 °F 58.6 °F 29.9 in SW 1.2 mph 1.2 mph 54 % 0 in
16:23 77 °F 57.9 °F 29.9 in WNW 5.8 mph 5.8 mph 52 % 0 in
16:28 77.2 °F 58.3 °F 29.9 in SSW 2.6 mph 2.9 mph 52 % 0 in
16:33 76.3 °F 57.9 °F 29.9 in SW 8.5 mph 8.5 mph 53 % 0 in
16:38 75.6 °F 57.2 °F 29.9 in SW 4.6 mph 4.6 mph 53 % 0 in
16:43 75.4 °F 57 °F 29.9 in WNW 4.6 mph 4.6 mph 53 % 0 in
16:48 74.8 °F 55.9 °F 29.9 in SW 8.1 mph 8.1 mph 52 % 0 in
16:53 75.6 °F 56.7 °F 29.9 in WSW 5.8 mph 5.8 mph 52 % 0 in
16:58 77.2 °F 58.3 °F 29.9 in SW 4.3 mph 4.3 mph 52 % 0 in
17:03 78.3 °F 58.6 °F 29.9 in West 4.6 mph 4.6 mph 51 % 0 in
17:08 77.9 °F 57.7 °F 29.9 in WSW 8.1 mph 8.1 mph 50 % 0 in
17:13 77.4 °F 57.4 °F 29.9 in WSW 4.6 mph 4.6 mph 50 % 0 in
17:18 76.1 °F 56.7 °F 29.9 in SW 4.6 mph 4.6 mph 51 % 0 in
17:23 75.7 °F 56.3 °F 29.9 in SW 2.4 mph   51 % 0 in
17:28 76.6 °F 57.2 °F 29.9 in SW 5.8 mph 5.8 mph 51 % 0 in
17:33 76.5 °F 57 °F 29.9 in SW 5.8 mph 5.8 mph 51 % 0 in
17:38 76.3 °F 56.3 °F 29.9 in WSW 5.8 mph 5.8 mph 50 % 0 in
17:43 76.8 °F 56.8 °F 29.9 in South 6.9 mph 6.9 mph 50 % 0 in
17:48 77.4 °F 56.7 °F 29.8 in SW 5.9 mph 5.9 mph 49 % 0 in
17:53 77.7 °F 57 °F 29.8 in WSW 5.8 mph 5.8 mph 49 % 0 in
17:58 78.1 °F 56.8 °F 29.8 in SW 6.2 mph 6.2 mph 48 % 0 in
18:03 77.9 °F 56.7 °F 29.8 in West 5.8 mph 5.8 mph 48 % 0 in
18:08 76.6 °F 55.9 °F 29.8 in South 5.8 mph 5.8 mph 49 % 0 in
18:13 76.3 °F 55.8 °F 29.8 in SSW 5.8 mph 5.8 mph 49 % 0 in
18:18 76.6 °F 55.6 °F 29.8 in WSW 4.6 mph 4.6 mph 48 % 0 in
18:23 77.2 °F 55.4 °F 29.8 in WSW 8.1 mph 8.1 mph 47 % 0 in
18:28 77 °F 54.7 °F 29.8 in South 6.4 mph 6.4 mph 46 % 0 in
18:33 76.6 °F 54.9 °F 29.8 in WSW 9.2 mph 9.2 mph 47 % 0 in
18:38 75.6 °F 53.2 °F 29.8 in WSW 8.1 mph 8.1 mph 46 % 0 in
18:43 75.7 °F 54.1 °F 29.8 in West 9.2 mph 9.2 mph 47 % 0 in
18:48 75.9 °F 54.1 °F 29.8 in West 10.7 mph 10.7 mph 47 % 0 in
18:53 75.6 °F 54 °F 29.8 in SW 8.1 mph 8.1 mph 47 % 0 in
18:58 75.7 °F 54.1 °F 29.8 in SW 8.1 mph 8.1 mph 47 % 0 in
19:03 75.6 °F 53.2 °F 29.8 in SSW 9.2 mph 9.2 mph 46 % 0 in
19:08 75.2 °F 53.6 °F 29.8 in SW 5.8 mph 5.8 mph 47 % 0 in
19:13 74.5 °F 52.9 °F 29.8 in SW 6.9 mph 6.9 mph 47 % 0 in
19:18 73.9 °F 52.3 °F 29.8 in WSW 8.1 mph 8.1 mph 47 % 0 in
19:23 73.9 °F 52.3 °F 29.8 in SW 4.6 mph 4.6 mph 47 % 0 in
19:28 73.9 °F 52.3 °F 29.8 in SW 6.9 mph 6.9 mph 47 % 0 in
19:33 73.4 °F 52 °F 29.8 in SW 6.9 mph 6.9 mph 47 % 0 in
19:38 73 °F 52.7 °F 29.8 in SW 8.1 mph 8.1 mph 49 % 0 in
19:43 72.9 °F 52.5 °F 29.8 in SW 6.9 mph 6.9 mph 49 % 0 in
19:48 72.7 °F 52.3 °F 29.8 in SW 4.6 mph 4.6 mph 49 % 0 in
19:53 72.9 °F 52.5 °F 29.8 in SSW 3.5 mph 3.5 mph 49 % 0 in
19:58 72.7 °F 52.3 °F 29.8 in SW 6.9 mph 6.9 mph 49 % 0 in
20:03 72.5 °F 52.2 °F 29.8 in SW 8.1 mph 8.1 mph 49 % 0 in
20:08 72.5 °F 51.6 °F 29.8 in SSW 5.4 mph 5.4 mph 48 % 0 in
20:13 72.3 °F 51.1 °F 29.8 in SW 10.4 mph 10.4 mph 47 % 0 in
20:18 72.3 °F 51.4 °F 29.8 in WSW 10.2 mph 10.2 mph 48 % 0 in
20:23 72.1 °F 50.7 °F 29.8 in SW 8.1 mph 8.1 mph 47 % 0 in
20:28 72 °F 50.5 °F 29.8 in SW 8.1 mph 8.1 mph 47 % 0 in
20:33 71.8 °F 50.5 °F 29.9 in SW 6.9 mph 6.9 mph 47 % 0 in
20:38 71.6 °F 50.4 °F 29.9 in SW 5.8 mph 5.8 mph 47 % 0 in
20:43 71.1 °F 49.8 °F 29.9 in SSW 6.9 mph 6.9 mph 47 % 0 in
20:48 70.9 °F 49.6 °F 29.9 in SSW 8.1 mph 8.1 mph 47 % 0 in
20:53 70.5 °F 49.8 °F 29.9 in SSW 8.1 mph 8.1 mph 48 % 0 in
20:58 70.2 °F 49.5 °F 29.9 in SW 6.9 mph 6.9 mph 48 % 0 in
21:03 70 °F 49.5 °F 29.8 in SW 9.2 mph 9.2 mph 48 % 0 in
21:08 69.6 °F 49.6 °F 29.8 in SW 8.1 mph 8.1 mph 49 % 0 in
21:13 69.3 °F 49.3 °F 29.8 in WSW 7.6 mph 7.6 mph 49 % 0 in
21:18 68.9 °F 48.9 °F 29.8 in South 5.8 mph 5.8 mph 49 % 0 in
21:23 68.7 °F 49.3 °F 29.8 in WSW 10.4 mph 10.4 mph 50 % 0 in
21:28 68.4 °F 48.9 °F 29.8 in SW 5.8 mph 5.8 mph 50 % 0 in
21:33 68.2 °F 48.7 °F 29.9 in SW 6.9 mph 6.9 mph 50 % 0 in
21:38 68 °F 49.3 °F 29.9 in WSW 5.8 mph 5.9 mph 51 % 0 in
21:43 67.8 °F 48.9 °F 29.9 in WSW 8.5 mph 8.5 mph 51 % 0 in
21:48 67.5 °F 49.3 °F 29.9 in SW 7.4 mph 7.4 mph 52 % 0 in
21:53 67.1 °F 49.5 °F 29.9 in SW 7.8 mph 7.8 mph 53 % 0 in
21:58 66.9 °F 49.6 °F 29.9 in SW 4.6 mph 4.6 mph 54 % 0 in
22:03 66.6 °F 49.8 °F 29.9 in SSW 4.9 mph 4.9 mph 55 % 0 in
22:08 66.4 °F 50.2 °F 29.9 in SW 7.1 mph 7.1 mph 56 % 0 in
22:13 66.4 °F 51.3 °F 29.9 in WSW 5.8 mph 5.8 mph 58 % 0 in
22:18 66.2 °F 51.1 °F 29.9 in SW 5.8 mph 5.8 mph 58 % 0 in
22:23 66.2 °F 51.4 °F 29.9 in SW 5.8 mph 5.8 mph 59 % 0 in
22:28 66 °F 51.6 °F 29.9 in SW 8.1 mph 8.1 mph 60 % 0 in
22:33 65.8 °F 52 °F 29.9 in South 6.9 mph 6.9 mph 61 % 0 in
22:38 65.7 °F 51.8 °F 29.9 in SW 4.6 mph 4.6 mph 61 % 0 in
22:43 65.5 °F 51.6 °F 29.9 in SW 3.6 mph 3.6 mph 61 % 0 in
22:48 65.3 °F 51.4 °F 29.9 in SW 4.6 mph 4.6 mph 61 % 0 in
22:53 65.1 °F 51.8 °F 29.9 in SW 3.5 mph 3.5 mph 62 % 0 in
22:58 64.9 °F 51.6 °F 29.9 in SSW 3.6 mph 3.6 mph 62 % 0 in
22:59 64.9 °F 51.6 °F 29.9 in SSW 3.6 mph 3.6 mph 62 % 0 in
23:04 64.8 °F 51.4 °F 29.9 in SW 3.1 mph 3.1 mph 62 % 0 in
23:09 64.6 °F 51.6 °F 29.9 in WSW 3.5 mph 3.5 mph 63 % 0 in
23:14 64.4 °F 51.4 °F 29.9 in SW 4.6 mph 4.6 mph 63 % 0 in
23:19 64.4 °F 51.4 °F 29.9 in SSW 3.5 mph 3.5 mph 63 % 0 in
23:24 64.2 °F 51.4 °F 29.9 in SW 2.3 mph 2.3 mph 63 % 0 in
23:29 64 °F 51.3 °F 29.9 in SW 2.9 mph 2.9 mph 63 % 0 in
23:31 64 °F 51.3 °F 29.9 in SW 3.5 mph 3.5 mph 63 % 0 in
23:36 63.9 °F 51.1 °F 29.9 in SW 3.5 mph 3.5 mph 63 % 0 in
23:41 63.7 °F 51.3 °F 29.9 in SW 2.9 mph 2.9 mph 64 % 0 in
23:46 63.5 °F 50.7 °F 29.9 in SSW 4.6 mph 4.6 mph 63 % 0 in
23:51 63.5 °F 51.1 °F 29.9 in SW 4.6 mph 4.6 mph 64 % 0 in
23:56 63.7 °F 51.3 °F 29.9 in SW 4.7 mph 4.7 mph 64 % 0 in
Meteo Sesrovires
Elogis d' Weather Underground - 3.75 mb

Guio original per  Jim McMurry - jmcmurry@mwt.net Adaptat per a la plantilla per  Wim van der Kuil - Leuven-Template.eu

Trobareu la nostra informacio del temps tambe a:

Weather Underground

AWEKAS